Time;durP1;ratioP1;P1;durP2;ratioP2;P2;SDS_P1;SDS_P2;PMS_P1;PMS_P2;Temp;Humidity;BMP_temperature;BMP_pressure;BME280_temperature;BME280_humidity;BME280_pressure;Samples;Min_cycle;Max_cycle;Signal;HPM_P1;HPM_P2
2024/01/18 00:02:24;;;;;;;30.85;17.02;;;;;;;-1.07;93.36;97570.20;1706387;84;25657;-54
2024/01/18 00:04:51;;;;;;;32.50;18.62;;;;;;;-1.03;93.15;97566.41;1706343;83;25519;-54
2024/01/18 00:07:17;;;;;;;30.72;17.50;;;;;;;-1.01;93.40;97567.66;1706364;84;25506;-53
2024/01/18 00:09:43;;;;;;;31.80;18.00;;;;;;;-0.97;93.38;97562.54;1688251;84;27424;-51
2024/01/18 00:12:11;;;;;;;29.90;17.40;;;;;;;-0.97;93.63;97561.21;1706320;84;25693;-53
2024/01/18 00:14:37;;;;;;;29.15;17.12;;;;;;;-0.94;93.77;97557.97;1706364;84;25637;-51
2024/01/18 00:17:05;;;;;;;31.33;16.90;;;;;;;-0.91;93.97;97552.62;1706320;84;25588;-50
2024/01/18 00:19:31;;;;;;;30.88;16.90;;;;;;;-0.90;94.64;97544.36;1706362;84;25654;-51
2024/01/18 00:21:57;;;;;;;30.82;16.77;;;;;;;-0.90;94.81;97523.13;1706374;84;27940;-52
2024/01/18 00:24:26;;;;;;;29.37;16.77;;;;;;;-0.88;94.94;97520.17;1706268;84;25615;-51
2024/01/18 00:26:52;;;;;;;31.70;16.93;;;;;;;-0.89;95.13;97513.28;1706359;83;25388;-52
2024/01/18 00:29:18;;;;;;;30.17;16.25;;;;;;;-0.86;95.20;97510.81;1706327;84;25708;-54
2024/01/18 00:31:44;;;;;;;26.90;15.70;;;;;;;-0.84;95.10;97498.02;1706411;84;25409;-52
2024/01/18 00:34:10;;;;;;;29.92;15.72;;;;;;;-0.84;95.61;97508.63;1706318;84;27374;-51
2024/01/18 00:36:39;;;;;;;27.80;15.93;;;;;;;-0.80;96.04;97510.14;1706281;84;25581;-52
2024/01/18 00:39:10;;;;;;;28.98;16.52;;;;;;;-0.78;96.05;97510.09;1706349;84;25621;-51
2024/01/18 00:41:33;;;;;;;29.27;16.25;;;;;;;-0.79;96.10;97511.72;1705657;83;25583;-51
2024/01/18 00:43:59;;;;;;;34.27;17.15;;;;;;;-0.75;96.25;97519.30;1706344;84;25571;-51
2024/01/18 00:46:25;;;;;;;28.32;16.35;;;;;;;-0.71;96.60;97515.53;1706269;84;27397;-54
2024/01/18 00:48:51;;;;;;;27.77;16.00;;;;;;;-0.69;96.68;97520.77;1706245;84;25390;-51
2024/01/18 00:51:17;;;;;;;28.27;16.87;;;;;;;-0.69;96.75;97522.09;1706371;84;25382;-51
2024/01/18 00:53:43;;;;;;;28.52;15.35;;;;;;;-0.66;97.00;97519.39;1706467;83;25628;-54
2024/01/18 00:56:11;;;;;;;29.18;16.25;;;;;;;-0.65;97.59;97526.25;1712105;83;25511;-50
2024/01/18 00:58:40;;;;;;;27.82;15.35;;;;;;;-0.65;97.34;97521.72;1720880;83;27394;-51
2024/01/18 01:01:09;;;;;;;21.97;12.63;;;;;;;-0.64;97.29;97521.97;1720963;83;27234;-51
2024/01/18 01:03:35;;;;;;;25.05;15.95;;;;;;;-0.61;97.18;97508.64;1690646;84;25530;-51
2024/01/18 01:06:04;;;;;;;25.97;15.90;;;;;;;-0.59;97.37;97502.48;1720825;83;26064;-53
2024/01/18 01:08:30;;;;;;;28.50;16.12;;;;;;;-0.57;97.56;97507.71;1690747;84;25459;-51
2024/01/18 01:10:56;;;;;;;27.58;15.28;;;;;;;-0.55;97.38;97493.36;1720911;83;27353;-53
2024/01/18 01:13:22;;;;;;;29.27;15.55;;;;;;;-0.54;97.83;97494.39;1690440;84;25629;-51
2024/01/18 01:15:50;;;;;;;28.25;15.38;;;;;;;-0.52;97.70;97501.50;1720998;83;25619;-49
2024/01/18 01:18:16;;;;;;;28.85;15.90;;;;;;;-0.49;97.93;97483.64;1690472;84;25691;-49
2024/01/18 01:20:42;;;;;;;28.98;16.12;;;;;;;-0.47;98.31;97485.99;1720902;83;25641;-50
2024/01/18 01:23:09;;;;;;;25.45;15.30;;;;;;;-0.45;97.92;97501.07;1690513;84;27898;-50
2024/01/18 01:25:35;;;;;;;27.62;14.45;;;;;;;-0.43;97.85;97496.23;1720735;83;25595;-51
2024/01/18 01:28:01;;;;;;;23.02;14.70;;;;;;;-0.41;98.33;97506.80;1689601;84;25624;-50
2024/01/18 01:30:27;;;;;;;23.92;14.20;;;;;;;-0.39;98.21;97497.98;1720305;83;25698;-50
2024/01/18 01:32:53;;;;;;;23.65;14.43;;;;;;;-0.38;98.42;97503.52;1690078;84;25727;-52
2024/01/18 01:35:20;;;;;;;24.15;14.65;;;;;;;-0.35;98.33;97514.09;1720385;83;27880;-49
2024/01/18 01:37:46;;;;;;;24.20;13.62;;;;;;;-0.32;98.75;97503.38;1689925;84;25615;-49
2024/01/18 01:40:12;;;;;;;22.05;13.38;;;;;;;-0.31;98.84;97502.30;1720419;83;25629;-49
2024/01/18 01:42:38;;;;;;;20.05;13.13;;;;;;;-0.30;99.27;97490.05;1689936;84;25699;-49
2024/01/18 01:45:07;;;;;;;19.85;11.60;;;;;;;-0.28;98.77;97495.84;1720608;83;25717;-49
2024/01/18 01:47:34;;;;;;;22.67;13.45;;;;;;;-0.27;99.48;97488.67;1690877;84;27378;-50
2024/01/18 01:50:03;;;;;;;22.73;12.43;;;;;;;-0.26;99.24;97488.34;1720905;83;25665;-51
2024/01/18 01:52:33;;;;;;;18.90;12.37;;;;;;;-0.24;99.26;97484.05;1690664;84;25647;-50
2024/01/18 01:55:02;;;;;;;23.87;13.05;;;;;;;-0.22;99.35;97479.23;1716898;82;25538;-52
2024/01/18 01:57:31;;;;;;;21.12;12.05;;;;;;;-0.19;99.41;97479.93;1716565;83;32732;-49
2024/01/18 02:00:04;;;;;;;23.05;11.85;;;;;;;-0.18;99.82;97482.84;1716564;83;27443;-53
2024/01/18 02:02:34;;;;;;;21.75;13.38;;;;;;;-0.16;99.82;97477.99;1715083;83;25641;-50
2024/01/18 02:05:03;;;;;;;25.02;12.20;;;;;;;-0.14;99.66;97466.51;1716365;83;25400;-50
2024/01/18 02:07:32;;;;;;;21.87;12.53;;;;;;;-0.13;99.57;97468.09;1716351;83;25632;-50
2024/01/18 02:09:59;;;;;;;23.18;13.08;;;;;;;-0.12;99.78;97470.99;1716525;83;25465;-50
2024/01/18 02:12:27;;;;;;;20.75;12.00;;;;;;;-0.09;99.83;97476.22;1690210;83;28070;-50
2024/01/18 02:14:57;;;;;;;19.70;11.68;;;;;;;-0.07;99.81;97467.39;1716447;83;25621;-50
2024/01/18 02:17:26;;;;;;;22.70;12.18;;;;;;;-0.06;99.85;97457.02;1716569;83;25619;-51
2024/01/18 02:19:52;;;;;;;20.82;13.40;;;;;;;-0.04;99.92;97459.58;1716494;83;25545;-50
2024/01/18 02:22:26;;;;;;;21.12;12.60;;;;;;;-0.03;100.00;97455.07;1716356;83;25453;-50
2024/01/18 02:25:01;;;;;;;25.25;13.50;;;;;;;-0.02;100.00;97451.30;1716331;83;27423;-53
2024/01/18 02:27:27;;;;;;;21.40;12.63;;;;;;;-0.01;100.00;97460.86;1716432;83;27565;-50
2024/01/18 02:29:53;;;;;;;24.05;12.82;;;;;;;0.00;100.00;97458.45;1716373;83;25607;-50
2024/01/18 02:32:19;;;;;;;19.30;12.35;;;;;;;0.00;100.00;97453.13;1716420;83;26216;-50
2024/01/18 02:34:46;;;;;;;24.47;13.22;;;;;;;0.01;100.00;97453.91;1716323;83;25468;-50
2024/01/18 02:37:14;;;;;;;19.17;12.55;;;;;;;0.02;100.00;97458.92;1716321;83;27453;-50
2024/01/18 02:39:41;;;;;;;20.87;12.23;;;;;;;0.04;100.00;97451.41;1716494;83;27127;-50
2024/01/18 02:42:10;;;;;;;21.62;13.00;;;;;;;0.04;100.00;97443.44;1716281;83;25558;-50
2024/01/18 02:44:39;;;;;;;24.02;12.53;;;;;;;0.05;100.00;97446.34;1716558;83;25589;-50
2024/01/18 02:47:06;;;;;;;20.12;11.25;;;;;;;0.05;100.00;97439.70;1716358;83;25458;-52
2024/01/18 02:49:37;;;;;;;23.18;12.88;;;;;;;0.06;100.00;97436.48;1716423;83;27222;-51
2024/01/18 02:52:06;;;;;;;21.12;12.85;;;;;;;0.07;100.00;97439.36;1716359;83;25559;-52
2024/01/18 02:54:32;;;;;;;23.25;13.22;;;;;;;0.09;100.00;97438.53;1716440;82;29831;-50
2024/01/18 02:56:58;;;;;;;23.65;13.03;;;;;;;0.08;100.00;97439.61;1716326;83;25417;-53
2024/01/18 02:59:25;;;;;;;22.48;12.78;;;;;;;0.08;100.00;97440.39;1716335;83;25378;-51
2024/01/18 03:01:51;;;;;;;23.70;12.50;;;;;;;0.10;100.00;97442.73;1716370;83;28128;-53
2024/01/18 03:04:20;;;;;;;20.68;12.13;;;;;;;0.11;100.00;97444.31;1716243;83;25548;-53
2024/01/18 03:06:48;;;;;;;20.52;12.53;;;;;;;0.12;100.00;97440.55;1716496;83;25522;-50
2024/01/18 03:09:14;;;;;;;23.42;12.18;;;;;;;0.13;100.00;97440.80;1716297;83;27794;-52
2024/01/18 03:11:40;;;;;;;23.18;12.93;;;;;;;0.13;100.00;97444.23;1716419;83;25642;-54
2024/01/18 03:14:06;;;;;;;21.35;13.28;;;;;;;0.15;100.00;97463.86;1716319;83;27327;-53
2024/01/18 03:16:34;;;;;;;22.90;12.18;;;;;;;0.14;100.00;97444.48;1716302;83;25466;-54
2024/01/18 03:19:00;;;;;;;23.35;12.43;;;;;;;0.15;100.00;97442.59;1716312;83;25549;-51
2024/01/18 03:21:28;;;;;;;19.65;12.18;;;;;;;0.15;100.00;97454.03;1716319;83;25631;-49
2024/01/18 03:23:56;;;;;;;20.85;12.10;;;;;;;0.16;100.00;97458.23;1716344;83;25591;-49
2024/01/18 03:26:23;;;;;;;22.27;12.70;;;;;;;0.17;100.00;97459.02;1716295;83;27358;-52
2024/01/18 03:28:49;;;;;;;23.95;13.60;;;;;;;0.17;100.00;97452.37;1716210;83;27179;-49
2024/01/18 03:31:15;;;;;;;22.95;13.20;;;;;;;0.16;100.00;97439.63;1716294;83;25595;-50
2024/01/18 03:33:41;;;;;;;23.92;13.75;;;;;;;0.19;100.00;97452.86;1716299;83;25556;-49
2024/01/18 03:36:11;;;;;;;24.23;11.85;;;;;;;0.20;100.00;97454.97;1716267;83;25569;-49
2024/01/18 03:38:37;;;;;;;20.57;11.38;;;;;;;0.20;100.00;97461.05;1716272;83;27409;-49
2024/01/18 03:41:06;;;;;;;23.00;13.50;;;;;;;0.21;100.00;97466.62;1716232;83;25390;-50
2024/01/18 03:43:32;;;;;;;22.48;11.93;;;;;;;0.21;100.00;97483.13;1716387;83;25634;-49
2024/01/18 03:45:59;;;;;;;20.57;12.40;;;;;;;0.21;100.00;97472.49;1716196;83;27883;-49
2024/01/18 03:48:25;;;;;;;19.20;12.13;;;;;;;0.22;100.00;97468.17;1716383;83;25659;-50
2024/01/18 03:50:51;;;;;;;23.15;12.82;;;;;;;0.23;100.00;97469.75;1716258;83;27408;-50
2024/01/18 03:53:18;;;;;;;21.25;11.18;;;;;;;0.24;100.00;97473.98;1716167;83;25474;-49
2024/01/18 03:55:46;;;;;;;18.92;10.82;;;;;;;0.26;100.00;97472.34;1711366;83;25623;-50
2024/01/18 03:58:12;;;;;;;21.82;12.70;;;;;;;0.26;100.00;97467.80;1680836;85;26301;-52
2024/01/18 04:00:41;;;;;;;22.32;12.40;;;;;;;0.30;100.00;97478.05;1710859;83;25579;-49
2024/01/18 04:03:11;;;;;;;22.13;12.60;;;;;;;0.32;100.00;97476.41;1680845;85;27397;-50
2024/01/18 04:05:40;;;;;;;21.77;12.20;;;;;;;0.33;100.00;97479.31;1710841;83;25628;-49
2024/01/18 04:08:06;;;;;;;23.70;13.15;;;;;;;0.33;100.00;97485.41;1681033;85;25507;-50
2024/01/18 04:10:32;;;;;;;24.05;12.95;;;;;;;0.35;100.00;97491.19;1710853;83;25678;-50
2024/01/18 04:12:59;;;;;;;21.95;12.90;;;;;;;0.36;100.00;97493.33;1680901;85;25668;-50
2024/01/18 04:15:25;;;;;;;25.32;13.50;;;;;;;0.38;100.00;97497.01;1710906;83;28006;-50
2024/01/18 04:17:51;;;;;;;22.17;14.07;;;;;;;0.39;100.00;97497.23;1680775;85;25432;-52
2024/01/18 04:20:26;;;;;;;27.17;15.45;;;;;;;0.40;100.00;97498.80;1710895;83;25431;-49
2024/01/18 04:22:46;;;;;;;25.85;14.13;;;;;;;0.39;100.00;97499.33;1679831;85;25638;-49
2024/01/18 04:25:14;;;;;;;22.45;13.40;;;;;;;0.41;100.00;97491.84;1711000;83;25626;-49
2024/01/18 04:27:40;;;;;;;23.57;13.70;;;;;;;0.43;100.00;97492.31;1680831;85;27343;-50
2024/01/18 04:30:12;;;;;;;35.92;14.58;;;;;;;0.43;100.00;97488.88;1710799;83;25575;-49
2024/01/18 04:32:38;;;;;;;25.32;14.38;;;;;;;0.44;100.00;97497.86;1680884;85;25443;-53
2024/01/18 04:35:08;;;;;;;22.32;14.38;;;;;;;0.44;100.00;97495.75;1710852;83;25586;-49
2024/01/18 04:37:34;;;;;;;26.80;15.18;;;;;;;0.46;100.00;97503.67;1680912;85;25574;-50
2024/01/18 04:40:01;;;;;;;27.60;15.45;;;;;;;0.47;100.00;97501.23;1710922;83;27444;-50
2024/01/18 04:42:29;;;;;;;23.30;14.47;;;;;;;0.48;100.00;97500.70;1680879;85;25573;-50
2024/01/18 04:44:57;;;;;;;26.62;14.78;;;;;;;0.48;100.00;97509.45;1710831;83;25644;-50
2024/01/18 04:47:25;;;;;;;24.72;15.10;;;;;;;0.50;100.00;97510.48;1680840;85;25566;-49
2024/01/18 04:49:52;;;;;;;27.05;15.95;;;;;;;0.51;100.00;97526.13;1710889;83;25451;-50
2024/01/18 04:52:20;;;;;;;24.45;15.58;;;;;;;0.50;100.00;97516.57;1680843;85;27748;-50
2024/01/18 04:54:46;;;;;;;28.75;16.35;;;;;;;0.52;100.00;97516.27;1710659;83;25628;-49
2024/01/18 04:57:15;;;;;;;25.52;15.40;;;;;;;0.54;100.00;97519.39;1680808;85;25621;-49
2024/01/18 04:59:43;;;;;;;29.63;16.52;;;;;;;0.54;100.00;97516.73;1710884;83;25632;-52
2024/01/18 05:02:09;;;;;;;27.42;16.57;;;;;;;0.53;100.00;97518.62;1680951;85;25476;-50
2024/01/18 05:04:37;;;;;;;31.90;17.57;;;;;;;0.52;100.00;97522.92;1710868;83;28177;-49
2024/01/18 05:07:06;;;;;;;27.15;16.57;;;;;;;0.57;100.00;97527.31;1680850;85;26015;-49
2024/01/18 05:09:33;;;;;;;27.30;16.45;;;;;;;0.58;100.00;97526.20;1711169;83;32293;-50
2024/01/18 05:11:59;;;;;;;28.77;16.62;;;;;;;0.58;100.00;97529.66;1680977;85;26209;-50
2024/01/18 05:14:25;;;;;;;30.92;18.07;;;;;;;0.60;100.00;97535.45;1711051;83;25654;-50
2024/01/18 05:16:53;;;;;;;28.60;16.97;;;;;;;0.61;100.00;97531.68;1680964;85;27312;-51
2024/01/18 05:19:21;;;;;;;34.33;19.20;;;;;;;0.62;100.00;97527.94;1711059;83;25571;-53
2024/01/18 05:21:48;;;;;;;30.97;17.52;;;;;;;0.65;100.00;97533.98;1680991;85;25379;-50
2024/01/18 05:24:14;;;;;;;29.50;17.85;;;;;;;0.65;100.00;97534.53;1711111;83;26209;-53
2024/01/18 05:26:40;;;;;;;31.40;18.77;;;;;;;0.67;100.00;97535.00;1681076;85;25567;-53
2024/01/18 05:29:06;;;;;;;31.30;18.40;;;;;;;0.68;100.00;97541.86;1711020;83;27349;-50
2024/01/18 05:31:34;;;;;;;30.15;18.70;;;;;;;0.70;100.00;97543.14;1680996;85;25651;-49
2024/01/18 05:34:00;;;;;;;31.62;18.98;;;;;;;0.71;100.00;97543.36;1711065;83;25390;-51
2024/01/18 05:36:27;;;;;;;33.23;19.92;;;;;;;0.73;100.00;97551.84;1680998;85;26562;-51
2024/01/18 05:38:53;;;;;;;35.08;19.87;;;;;;;0.73;100.00;97555.83;1711050;83;25456;-51
2024/01/18 05:41:19;;;;;;;33.70;18.98;;;;;;;0.75;100.00;97558.17;1681004;85;27358;-50
2024/01/18 05:43:45;;;;;;;38.48;20.43;;;;;;;0.76;100.00;97555.73;1710961;83;25743;-52
2024/01/18 05:46:11;;;;;;;36.28;20.35;;;;;;;0.77;100.00;97560.50;1680941;85;25620;-51
2024/01/18 05:48:38;;;;;;;38.10;21.52;;;;;;;0.78;100.00;97570.06;1710947;83;25634;-50
2024/01/18 05:51:09;;;;;;;39.60;21.62;;;;;;;0.79;100.00;97576.97;1680951;85;25554;-50
2024/01/18 05:53:38;;;;;;;40.58;22.27;;;;;;;0.80;100.00;97579.84;1711056;83;27278;-50
2024/01/18 05:56:07;;;;;;;48.38;24.72;;;;;;;0.81;100.00;97582.20;1659792;84;25448;-50
2024/01/18 05:58:33;;;;;;;39.18;23.73;;;;;;;0.82;100.00;97586.44;1711556;83;25408;-50
2024/01/18 06:01:01;;;;;;;46.20;24.52;;;;;;;0.86;100.00;97586.59;1706337;84;25634;-49
2024/01/18 06:03:29;;;;;;;44.65;24.95;;;;;;;0.85;100.00;97590.34;1706424;84;25556;-49
2024/01/18 06:05:58;;;;;;;44.23;23.73;;;;;;;0.85;100.00;97596.47;1706438;84;27326;-50
2024/01/18 06:08:26;;;;;;;46.95;24.87;;;;;;;0.85;100.00;97607.11;1705631;83;25462;-50
2024/01/18 06:10:57;;;;;;;47.15;25.68;;;;;;;0.86;100.00;97603.89;1706400;84;25574;-53
2024/01/18 06:13:24;;;;;;;45.08;24.40;;;;;;;0.87;100.00;97617.42;1706414;84;25627;-49
2024/01/18 06:15:52;;;;;;;48.50;25.40;;;;;;;0.88;100.00;97614.45;1706554;83;25628;-49
2024/01/18 06:18:18;;;;;;;51.55;27.22;;;;;;;0.88;100.00;97613.13;1705867;84;27320;-52
2024/01/18 06:20:45;;;;;;;46.35;25.43;;;;;;;0.89;100.00;97622.69;1705614;84;25635;-50
2024/01/18 06:23:11;;;;;;;54.20;26.52;;;;;;;0.89;100.00;97621.35;1705801;84;25703;-50
2024/01/18 06:25:37;;;;;;;49.33;26.00;;;;;;;0.90;100.00;97625.59;1705864;83;25669;-49
2024/01/18 06:28:10;;;;;;;49.13;28.27;;;;;;;0.89;100.00;97620.58;1705802;84;25641;-50
2024/01/18 06:30:43;;;;;;;55.20;29.25;;;;;;;0.91;100.00;97624.48;1705820;84;27330;-49
2024/01/18 06:33:05;;;;;;;54.03;27.98;;;;;;;0.92;100.00;97621.30;1704807;83;25832;-51
2024/01/18 06:35:32;;;;;;;53.85;29.37;;;;;;;0.93;100.00;97626.28;1706389;84;25638;-51
2024/01/18 06:38:00;;;;;;;54.58;28.73;;;;;;;0.94;100.00;97628.41;1706357;84;25648;-50
2024/01/18 06:40:26;;;;;;;57.48;30.80;;;;;;;0.95;100.00;97633.96;1706366;84;25554;-49
2024/01/18 06:42:52;;;;;;;56.77;30.25;;;;;;;0.95;100.00;97636.63;1706360;84;27397;-49
2024/01/18 06:45:18;;;;;;;58.78;31.97;;;;;;;0.95;100.00;97637.95;1706292;84;25389;-50
2024/01/18 06:47:44;;;;;;;59.23;31.50;;;;;;;0.97;100.00;97641.64;1706465;84;25622;-49
2024/01/18 06:50:13;;;;;;;63.98;32.53;;;;;;;0.97;100.00;97641.11;1706451;84;26313;-50
2024/01/18 06:52:41;;;;;;;59.13;32.45;;;;;;;0.97;100.00;97645.63;1706382;84;25391;-49
2024/01/18 06:55:09;;;;;;;64.42;32.28;;;;;;;0.98;100.00;97648.55;1707301;83;27331;-52
2024/01/18 06:57:41;;;;;;;60.52;31.65;;;;;;;0.97;100.00;97640.30;1719284;83;25395;-50
2024/01/18 07:00:14;;;;;;;64.00;33.58;;;;;;;0.98;100.00;97641.33;1720913;83;25575;-49
2024/01/18 07:02:44;;;;;;;64.53;33.18;;;;;;;0.96;100.00;97640.86;1690557;84;25615;-52
2024/01/18 07:05:10;;;;;;;62.43;33.18;;;;;;;0.98;100.00;97642.66;1721154;83;25394;-50
2024/01/18 07:07:36;;;;;;;64.10;32.67;;;;;;;0.98;100.00;97647.98;1690455;84;27391;-49
2024/01/18 07:10:08;;;;;;;70.17;35.55;;;;;;;0.99;100.00;97647.43;1720884;83;25471;-49
2024/01/18 07:12:34;;;;;;;60.48;33.38;;;;;;;0.99;100.00;97656.22;1690610;84;25646;-49
2024/01/18 07:15:00;;;;;;;71.33;36.05;;;;;;;0.99;100.00;97660.22;1720922;83;26240;-49
2024/01/18 07:17:27;;;;;;;69.58;36.70;;;;;;;1.00;100.00;97667.09;1690621;84;25632;-49
2024/01/18 07:19:56;;;;;;;69.22;35.52;;;;;;;0.99;100.00;97662.88;1720916;83;27333;-52
2024/01/18 07:22:26;;;;;;;68.28;35.48;;;;;;;1.01;100.00;97667.89;1689872;84;25585;-49
2024/01/18 07:24:55;;;;;;;74.30;37.53;;;;;;;1.01;100.00;97669.22;1720929;83;25604;-48
2024/01/18 07:27:23;;;;;;;73.95;37.23;;;;;;;1.01;100.00;97680.64;1690434;84;25633;-50
2024/01/18 07:29:51;;;;;;;71.90;36.30;;;;;;;1.01;100.00;97675.87;1721020;83;25656;-51
2024/01/18 07:32:18;;;;;;;70.90;35.88;;;;;;;1.01;100.00;97677.98;1690538;84;27394;-49
2024/01/18 07:34:46;;;;;;;67.25;36.13;;;;;;;1.01;100.00;97679.31;1720850;83;25832;-50
2024/01/18 07:37:13;;;;;;;66.62;35.63;;;;;;;1.01;100.00;97683.86;1690472;84;25583;-49
2024/01/18 07:39:44;;;;;;;72.45;35.88;;;;;;;1.02;100.00;97684.09;1721005;83;25611;-49
2024/01/18 07:42:11;;;;;;;73.47;36.05;;;;;;;1.02;100.00;97688.08;1690508;84;25462;-49
2024/01/18 07:44:39;;;;;;;70.10;35.08;;;;;;;1.03;100.00;97699.75;1720970;83;27419;-48
2024/01/18 07:47:10;;;;;;;69.80;34.25;;;;;;;1.02;100.00;97699.53;1688957;84;25420;-51
2024/01/18 07:49:42;;;;;;;73.05;36.80;;;;;;;1.03;100.00;97694.42;1720949;83;25555;-48
2024/01/18 07:52:08;;;;;;;72.17;35.98;;;;;;;1.03;100.00;97694.98;1690302;84;25694;-52
2024/01/18 07:54:34;;;;;;;73.67;37.08;;;;;;;1.02;100.00;97702.72;1721066;83;25573;-49
2024/01/18 07:57:04;;;;;;;74.20;36.75;;;;;;;1.02;100.00;97712.84;1713201;83;27299;-50
2024/01/18 07:59:34;;;;;;;76.42;37.25;;;;;;;1.03;100.00;97718.39;1687303;84;25236;-49
2024/01/18 08:02:04;;;;;;;73.95;36.25;;;;;;;1.02;100.00;97724.02;1711146;83;25762;-51
2024/01/18 08:04:31;;;;;;;77.45;38.10;;;;;;;0.99;100.00;97728.09;1708431;83;25758;-49
2024/01/18 08:06:59;;;;;;;77.60;36.70;;;;;;;1.02;100.00;97735.47;1706341;84;25602;-51
2024/01/18 08:09:25;;;;;;;79.35;36.33;;;;;;;1.03;100.00;97734.91;1706361;84;27920;-49
2024/01/18 08:11:51;;;;;;;72.97;34.13;;;;;;;1.02;100.00;97736.80;1706246;84;25438;-49
2024/01/18 08:14:21;;;;;;;73.87;34.58;;;;;;;1.00;100.00;97733.64;1706356;84;25638;-49
2024/01/18 08:16:47;;;;;;;76.53;36.55;;;;;;;1.01;100.00;97731.23;1706319;84;25675;-50
2024/01/18 08:19:13;;;;;;;81.35;39.20;;;;;;;1.01;100.00;97736.55;1706426;84;25618;-52
2024/01/18 08:21:44;;;;;;;75.25;35.52;;;;;;;1.01;100.00;97733.11;1706340;84;26484;-52
2024/01/18 08:24:12;;;;;;;81.17;37.65;;;;;;;1.00;100.00;97738.19;1706319;84;25867;-50
2024/01/18 08:26:43;;;;;;;74.80;37.80;;;;;;;1.05;100.00;97738.82;1706378;84;25580;-50
2024/01/18 08:29:10;;;;;;;77.75;37.83;;;;;;;1.09;100.00;97742.98;1706295;84;25616;-51
2024/01/18 08:31:36;;;;;;;78.92;38.28;;;;;;;1.14;100.00;97746.06;1706359;84;25618;-51
2024/01/18 08:34:03;;;;;;;78.78;37.55;;;;;;;1.16;100.00;97744.67;1706362;84;28074;-50
2024/01/18 08:36:29;;;;;;;80.55;37.73;;;;;;;1.17;100.00;97752.10;1706280;84;25576;-50
2024/01/18 08:38:56;;;;;;;77.08;38.95;;;;;;;1.19;100.00;97757.90;1706312;84;25555;-49
2024/01/18 08:41:22;;;;;;;76.28;36.80;;;;;;;1.18;100.00;97769.66;1706283;84;25640;-49
2024/01/18 08:43:48;;;;;;;88.87;38.55;;;;;;;1.18;100.00;97777.09;1706331;84;25679;-49
2024/01/18 08:46:14;;;;;;;77.35;36.77;;;;;;;1.17;100.00;97777.41;1706216;84;27381;-53
2024/01/18 08:48:42;;;;;;;77.72;38.13;;;;;;;1.19;100.00;97780.53;1706250;84;25677;-50
2024/01/18 08:51:13;;;;;;;76.82;37.38;;;;;;;1.21;100.00;97786.33;1706353;84;25567;-49
2024/01/18 08:53:36;;;;;;;75.12;37.80;;;;;;;1.22;100.00;97791.35;1704977;83;25563;-51
2024/01/18 08:56:07;;;;;;;77.95;38.48;;;;;;;1.24;100.00;97791.85;1706218;83;25620;-52
2024/01/18 08:58:33;;;;;;;73.02;37.75;;;;;;;1.28;100.00;97796.02;1710833;83;27388;-50
2024/01/18 09:01:00;;;;;;;80.80;41.28;;;;;;;1.29;100.00;97801.03;1715901;83;25632;-53
2024/01/18 09:03:28;;;;;;;84.00;40.33;;;;;;;1.32;100.00;97809.49;1716044;83;25815;-52
2024/01/18 09:05:56;;;;;;;81.15;38.40;;;;;;;1.33;100.00;97814.52;1716015;83;25569;-53
2024/01/18 09:08:24;;;;;;;78.07;36.85;;;;;;;1.36;100.00;97821.87;1716150;83;25580;-53
2024/01/18 09:10:52;;;;;;;77.27;37.05;;;;;;;1.40;100.00;97823.39;1716162;83;27765;-53
2024/01/18 09:13:20;;;;;;;73.75;35.33;;;;;;;1.37;100.00;97824.00;1716034;83;25570;-52
2024/01/18 09:15:51;;;;;;;74.47;35.75;;;;;;;1.30;100.00;97823.89;1716091;83;25714;-53
2024/01/18 09:18:18;;;;;;;81.50;38.28;;;;;;;1.27;100.00;97830.38;1714188;83;25677;-51
2024/01/18 09:20:45;;;;;;;76.02;37.88;;;;;;;1.25;100.00;97827.25;1716120;83;25457;-49
2024/01/18 09:23:14;;;;;;;77.53;36.60;;;;;;;1.25;100.00;97824.58;1715909;83;27382;-48
2024/01/18 09:25:43;;;;;;;73.80;37.25;;;;;;;1.24;100.00;97834.98;1715929;83;25626;-49
2024/01/18 09:28:10;;;;;;;75.78;37.48;;;;;;;1.25;100.00;97824.58;1716082;83;25417;-49
2024/01/18 09:30:37;;;;;;;75.55;36.38;;;;;;;1.25;100.00;97830.69;1715984;83;25617;-51
2024/01/18 09:33:05;;;;;;;77.25;36.53;;;;;;;1.25;100.00;97834.69;1716070;83;25418;-51
2024/01/18 09:35:32;;;;;;;78.02;35.95;;;;;;;1.22;100.00;97833.19;1716007;83;27236;-50
2024/01/18 09:37:58;;;;;;;72.65;35.68;;;;;;;1.20;100.00;97840.70;1715920;83;25605;-51
2024/01/18 09:40:28;;;;;;;71.62;33.73;;;;;;;1.21;100.00;97852.91;1716007;83;25477;-49
2024/01/18 09:43:00;;;;;;;67.95;33.85;;;;;;;1.20;100.00;97846.80;1716057;83;26195;-49
2024/01/18 09:45:30;;;;;;;72.53;33.73;;;;;;;1.17;100.00;97846.63;1716131;83;25563;-50
2024/01/18 09:47:56;;;;;;;72.12;32.45;;;;;;;1.15;100.00;97850.93;1715970;83;27335;-49
2024/01/18 09:50:24;;;;;;;69.77;34.30;;;;;;;1.16;100.00;97846.38;1715922;83;25691;-49
2024/01/18 09:52:51;;;;;;;73.75;33.40;;;;;;;1.16;100.00;97847.71;1716080;83;25627;-52
2024/01/18 09:55:17;;;;;;;73.15;35.05;;;;;;;1.16;100.00;97844.52;1716086;83;26321;-49
2024/01/18 09:57:49;;;;;;;69.47;32.85;;;;;;;1.18;100.00;97846.88;1720281;83;25457;-51
2024/01/18 10:00:22;;;;;;;72.60;35.08;;;;;;;1.18;100.00;97845.55;1720988;83;26966;-50
2024/01/18 10:02:52;;;;;;;66.92;32.55;;;;;;;1.18;100.00;97846.33;1690516;84;25438;-50
2024/01/18 10:05:21;;;;;;;71.92;33.18;;;;;;;1.19;100.00;97848.44;1721028;83;25206;-51
2024/01/18 10:07:49;;;;;;;71.28;34.45;;;;;;;1.18;100.00;97845.55;1690453;84;25729;-50
2024/01/18 10:10:18;;;;;;;74.92;36.03;;;;;;;1.18;100.00;97839.67;1720945;83;25761;-50
2024/01/18 10:12:48;;;;;;;69.82;30.48;;;;;;;1.25;100.00;97846.67;1690222;84;27356;-49
2024/01/18 10:15:33;;;;;;;77.12;35.43;;;;;;;1.27;100.00;97844.48;1720917;83;27295;-49
2024/01/18 10:18:07;;;;;;;73.00;34.70;;;;;;;1.33;100.00;97847.00;1690586;84;25644;-50
2024/01/18 10:20:36;;;;;;;71.95;31.90;;;;;;;1.40;100.00;97840.70;1721096;83;25968;-50
2024/01/18 10:23:05;;;;;;;75.78;34.03;;;;;;;1.46;100.00;97840.27;1690567;84;25550;-50
2024/01/18 10:25:39;;;;;;;78.80;37.88;;;;;;;1.55;100.00;97840.81;1720885;83;27311;-49
2024/01/18 10:28:07;;;;;;;78.20;36.58;;;;;;;1.59;100.00;97844.45;1690439;84;25413;-50
2024/01/18 10:30:36;;;;;;;82.33;38.30;;;;;;;1.69;100.00;97845.49;1721019;83;25403;-50
2024/01/18 10:33:02;;;;;;;76.12;36.60;;;;;;;1.77;100.00;97847.92;1687448;84;25568;-50
2024/01/18 10:35:28;;;;;;;72.15;35.13;;;;;;;1.75;100.00;97839.46;1721011;83;25495;-50
2024/01/18 10:38:07;;;;;;;85.17;41.70;;;;;;;1.78;100.00;97847.62;1690551;84;27774;-49
2024/01/18 10:40:37;;;;;;;93.50;42.27;;;;;;;1.82;100.00;97844.59;1721028;83;25450;-51
2024/01/18 10:43:08;;;;;;;79.45;36.98;;;;;;;1.84;100.00;97842.95;1690455;84;25996;-49
2024/01/18 10:45:35;;;;;;;65.10;31.48;;;;;;;1.88;100.00;97841.77;1690489;83;25841;-48
2024/01/18 10:48:07;;;;;;;73.33;33.02;;;;;;;1.89;100.00;97849.46;1690536;84;25645;-48
2024/01/18 10:50:39;;;;;;;65.83;31.68;;;;;;;1.85;100.00;97845.27;1720954;83;27242;-48
2024/01/18 10:53:09;;;;;;;66.92;30.68;;;;;;;1.88;100.00;97867.09;1690440;84;26156;-50
2024/01/18 10:55:35;;;;;;;63.42;30.77;;;;;;;1.89;99.79;97884.64;1720903;83;25528;-50
2024/01/18 10:58:01;;;;;;;61.83;30.65;;;;;;;1.86;99.28;97889.51;1658244;84;25602;-52
2024/01/18 11:00:28;;;;;;;66.40;31.27;;;;;;;1.84;98.66;97899.70;1716359;83;25586;-49
2024/01/18 11:02:58;;;;;;;62.65;29.98;;;;;;;1.78;98.04;97908.14;1708979;83;27320;-49
2024/01/18 11:05:30;;;;;;;62.65;31.85;;;;;;;1.72;97.70;97920.84;1706349;84;25736;-49
2024/01/18 11:08:04;;;;;;;68.30;34.05;;;;;;;1.66;97.79;97929.50;1706410;83;25402;-50
2024/01/18 11:10:35;;;;;;;70.47;32.88;;;;;;;1.65;98.04;97932.47;1706304;84;25932;-52
2024/01/18 11:13:05;;;;;;;67.75;33.23;;;;;;;1.60;98.04;97936.08;1706232;84;25799;-50
2024/01/18 11:15:37;;;;;;;70.80;32.67;;;;;;;1.54;97.46;97939.95;1706312;84;27285;-49
2024/01/18 11:18:13;;;;;;;67.70;32.85;;;;;;;1.49;97.40;97940.86;1706106;84;25508;-50
2024/01/18 11:21:04;;;;;;;67.75;28.75;;;;;;;1.45;97.30;97948.46;1706483;84;25592;-50